createdAt,value
2022-11-18T00:01:18.070Z,1.08
2022-11-18T00:03:46.686Z,20.23
2022-11-18T00:06:17.308Z,13.13
2022-11-18T00:08:44.636Z,11.05
2022-11-18T00:11:34.215Z,15.77
2022-11-18T00:14:19.713Z,5.28
2022-11-18T00:17:00.004Z,5.88
2022-11-18T00:19:30.001Z,6.88
2022-11-18T00:21:57.885Z,4.72
2022-11-18T00:24:26.156Z,8.02
2022-11-18T00:26:54.566Z,3.60
2022-11-18T00:29:23.249Z,6.35
2022-11-18T00:31:50.570Z,7.05
2022-11-18T00:34:19.021Z,4.15
2022-11-18T00:36:47.241Z,3.92
2022-11-18T00:39:17.369Z,2.80
2022-11-18T00:42:04.221Z,4.90
2022-11-18T00:44:31.617Z,3.42
2022-11-18T00:46:59.066Z,15.90
2022-11-18T00:49:26.427Z,10.82
2022-11-18T00:51:53.794Z,10.05
2022-11-18T00:54:21.498Z,4.75
2022-11-18T00:56:49.046Z,6.82
2022-11-18T00:59:16.941Z,9.32
2022-11-18T01:01:44.778Z,13.13
2022-11-18T01:04:12.107Z,11.25
2022-11-18T01:06:39.759Z,10.48
2022-11-18T01:09:07.114Z,5.50
2022-11-18T01:11:52.911Z,5.45
2022-11-18T01:14:20.202Z,9.45
2022-11-18T01:16:51.430Z,5.78
2022-11-18T01:19:19.361Z,4.90
2022-11-18T01:21:47.177Z,10.32
2022-11-18T01:24:14.668Z,6.28
2022-11-18T01:26:42.422Z,8.80
2022-11-18T01:29:10.118Z,6.13
2022-11-18T01:31:50.214Z,22.88
2022-11-18T01:34:27.573Z,4.30
2022-11-18T01:36:56.476Z,9.23
2022-11-18T01:39:23.623Z,4.90
2022-11-18T01:41:51.041Z,6.00
2022-11-18T01:44:55.993Z,2.97
2022-11-18T01:47:25.742Z,6.85
2022-11-18T01:49:53.411Z,10.35
2022-11-18T01:52:22.411Z,5.68
2022-11-18T01:54:55.387Z,12.15
2022-11-18T01:57:23.632Z,7.97
2022-11-18T01:59:54.986Z,9.13
2022-11-18T02:02:22.786Z,10.18
2022-11-18T02:04:53.644Z,8.13
2022-11-18T02:07:22.218Z,6.93
2022-11-18T02:09:50.623Z,2.85
2022-11-18T02:12:17.921Z,10.63
2022-11-18T02:14:47.449Z,6.35
2022-11-18T02:17:26.217Z,3.03
2022-11-18T02:20:15.160Z,6.95
2022-11-18T02:22:57.963Z,3.70
2022-11-18T02:26:02.365Z,12.60
2022-11-18T02:28:38.406Z,5.05
2022-11-18T02:31:17.240Z,5.90
2022-11-18T02:33:55.633Z,7.65
2022-11-18T02:36:29.071Z,9.90
2022-11-18T02:39:03.178Z,5.32
2022-11-18T02:41:33.881Z,2.55
2022-11-18T02:44:08.663Z,3.88
2022-11-18T02:46:39.542Z,4.68
2022-11-18T02:49:15.211Z,8.98
2022-11-18T02:51:45.014Z,4.70
2022-11-18T02:54:13.831Z,4.47
2022-11-18T02:56:42.179Z,3.80
2022-11-18T02:59:09.439Z,4.55
2022-11-18T03:01:37.072Z,9.68
2022-11-18T03:04:04.707Z,6.72
2022-11-18T03:06:41.297Z,13.82
2022-11-18T03:09:27.393Z,12.38
2022-11-18T03:12:16.386Z,5.40
2022-11-18T03:15:10.974Z,9.82
2022-11-18T03:17:59.847Z,7.70
2022-11-18T03:20:33.237Z,7.63
2022-11-18T03:23:12.112Z,1.55
2022-11-18T03:25:51.872Z,7.85
2022-11-18T03:28:27.159Z,5.70
2022-11-18T03:31:12.760Z,6.88
2022-11-18T03:33:45.478Z,4.55
2022-11-18T03:36:15.548Z,4.55
2022-11-18T03:38:57.636Z,4.65
2022-11-18T03:41:28.010Z,7.35
2022-11-18T03:44:12.733Z,6.18
2022-11-18T03:46:49.066Z,12.18
2022-11-18T03:49:28.991Z,3.87
2022-11-18T03:52:02.834Z,5.22
2022-11-18T03:54:33.378Z,13.45
2022-11-18T03:57:12.186Z,2.92
2022-11-18T03:59:47.629Z,20.98
2022-11-18T04:02:21.965Z,4.05
2022-11-18T04:04:51.869Z,5.60
2022-11-18T04:07:42.288Z,5.88
2022-11-18T04:10:32.837Z,7.47
2022-11-18T04:13:06.898Z,2.35
2022-11-18T04:15:38.148Z,10.13
2022-11-18T04:18:05.921Z,6.10
2022-11-18T04:20:33.823Z,9.00
2022-11-18T04:23:01.360Z,1.85
2022-11-18T04:25:28.682Z,3.63
2022-11-18T04:27:56.014Z,5.88
2022-11-18T04:30:23.305Z,4.20
2022-11-18T04:32:50.557Z,2.55
2022-11-18T04:35:17.809Z,11.50
2022-11-18T04:37:45.095Z,6.78
2022-11-18T04:40:12.534Z,7.32
2022-11-18T04:42:40.106Z,4.47
2022-11-18T04:45:08.311Z,7.10
2022-11-18T04:47:36.024Z,6.85
2022-11-18T04:50:03.441Z,7.40
2022-11-18T04:52:30.805Z,3.03
2022-11-18T04:54:58.090Z,3.05
2022-11-18T04:57:25.363Z,3.22
2022-11-18T04:59:52.595Z,1.52
2022-11-18T05:02:19.863Z,3.83
2022-11-18T05:04:47.191Z,6.97
2022-11-18T05:07:15.931Z,8.38
2022-11-18T05:09:43.403Z,3.50
2022-11-18T05:12:33.204Z,2.20
2022-11-18T05:15:00.904Z,1.52
2022-11-18T05:17:28.305Z,7.28
2022-11-18T05:19:55.620Z,11.18
2022-11-18T05:22:23.371Z,7.50
2022-11-18T05:24:50.593Z,2.05
2022-11-18T05:27:18.025Z,9.63
2022-11-18T05:29:45.768Z,3.75
2022-11-18T05:32:13.021Z,6.38
2022-11-18T05:34:41.647Z,5.85
2022-11-18T05:37:09.278Z,18.17
2022-11-18T05:39:36.724Z,10.55
2022-11-18T05:42:23.007Z,11.85
2022-11-18T05:44:57.463Z,3.22
2022-11-18T05:47:25.957Z,8.50
2022-11-18T05:49:53.209Z,4.30
2022-11-18T05:52:20.536Z,5.38
2022-11-18T05:54:50.573Z,1.80
2022-11-18T05:57:17.964Z,2.40
2022-11-18T05:59:45.322Z,3.67
2022-11-18T06:02:16.604Z,3.35
2022-11-18T06:04:53.193Z,7.18
2022-11-18T06:07:22.681Z,10.45
2022-11-18T06:09:55.958Z,8.73
2022-11-18T06:12:27.570Z,4.28
2022-11-18T06:15:27.409Z,1.70
2022-11-18T06:17:59.859Z,11.65
2022-11-18T06:20:27.711Z,5.57
2022-11-18T06:22:58.131Z,2.97
2022-11-18T06:25:25.589Z,5.35
2022-11-18T06:27:56.257Z,6.72
2022-11-18T06:30:23.676Z,4.57
2022-11-18T06:32:51.057Z,5.60
2022-11-18T06:35:18.589Z,8.10
2022-11-18T06:37:46.975Z,12.93
2022-11-18T06:40:14.682Z,9.77
2022-11-18T06:43:00.641Z,3.03
2022-11-18T06:45:27.918Z,5.80
2022-11-18T06:48:00.266Z,19.05
2022-11-18T06:50:28.753Z,4.90
2022-11-18T06:52:56.321Z,11.55
2022-11-18T06:55:24.040Z,4.93
2022-11-18T06:57:51.281Z,2.83
2022-11-18T07:00:18.829Z,15.18
2022-11-18T07:02:46.100Z,10.30
2022-11-18T07:05:13.351Z,1.83
2022-11-18T07:07:42.331Z,7.75
2022-11-18T07:10:10.179Z,4.55
2022-11-18T07:12:37.440Z,10.05
2022-11-18T07:15:04.969Z,5.05
2022-11-18T07:17:32.244Z,6.18
2022-11-18T07:19:59.984Z,0.40
2022-11-18T07:22:27.363Z,2.05
2022-11-18T07:24:54.629Z,13.70
2022-11-18T07:27:21.981Z,6.47
2022-11-18T07:29:49.272Z,9.43
2022-11-18T07:32:16.514Z,6.50
2022-11-18T07:34:45.097Z,9.43
2022-11-18T07:37:12.817Z,4.10
2022-11-18T07:39:40.428Z,7.13
2022-11-18T07:42:09.430Z,2.65
2022-11-18T07:44:36.753Z,3.80
2022-11-18T07:47:04.449Z,12.73
2022-11-18T07:49:31.699Z,7.13
2022-11-18T07:51:59.025Z,2.70
2022-11-18T07:54:26.445Z,5.53
2022-11-18T07:56:53.810Z,4.63
2022-11-18T07:59:21.315Z,7.13
2022-11-18T08:01:48.965Z,8.80
2022-11-18T08:04:17.967Z,3.67
2022-11-18T08:06:45.664Z,13.13
2022-11-18T08:09:13.032Z,12.63
2022-11-18T08:11:40.994Z,4.03
2022-11-18T08:14:08.258Z,9.80
2022-11-18T08:16:36.024Z,5.20
2022-11-18T08:19:03.495Z,1.75
2022-11-18T08:21:30.885Z,5.80
2022-11-18T08:23:58.962Z,6.68
2022-11-18T08:26:27.066Z,9.40
2022-11-18T08:28:54.564Z,9.07
2022-11-18T08:31:25.324Z,10.55
2022-11-18T08:34:07.521Z,13.20
2022-11-18T08:36:37.715Z,9.07
2022-11-18T08:39:08.881Z,4.60
2022-11-18T08:41:39.880Z,6.30
2022-11-18T08:44:11.131Z,2.03
2022-11-18T08:46:38.871Z,10.70
2022-11-18T08:49:06.135Z,12.45
2022-11-18T08:51:33.792Z,14.15
2022-11-18T08:54:01.126Z,6.75
2022-11-18T08:56:28.831Z,12.55
2022-11-18T08:58:56.248Z,22.88
2022-11-18T09:01:23.962Z,6.53
2022-11-18T09:03:51.920Z,6.32
2022-11-18T09:06:22.624Z,5.38
2022-11-18T09:08:50.411Z,6.95
2022-11-18T09:11:23.517Z,20.02
2022-11-18T09:16:43.352Z,5.28
2022-11-18T09:19:45.123Z,9.48
2022-11-18T09:21:58.022Z,4.15
2022-11-18T09:24:26.441Z,12.45
2022-11-18T09:26:54.238Z,8.05
2022-11-18T09:29:25.903Z,15.70
2022-11-18T09:31:54.126Z,3.15
2022-11-18T09:34:22.201Z,8.05
2022-11-18T09:36:50.126Z,14.32
2022-11-18T09:39:17.581Z,7.47
2022-11-18T09:41:55.089Z,10.48
2022-11-18T09:44:32.687Z,14.55
2022-11-18T09:47:26.473Z,12.38
2022-11-18T09:50:03.732Z,12.45
2022-11-18T09:52:44.836Z,12.00
2022-11-18T09:55:17.878Z,9.27
2022-11-18T09:57:51.392Z,13.07
2022-11-18T10:00:22.968Z,14.52
2022-11-18T10:02:50.689Z,3.28
2022-11-18T10:05:29.885Z,20.73
2022-11-18T10:08:05.419Z,19.40
2022-11-18T10:10:56.810Z,7.30
2022-11-18T10:13:26.873Z,7.85
2022-11-18T10:16:11.802Z,14.00
2022-11-18T10:19:16.514Z,9.00
2022-11-18T10:22:01.889Z,8.00
2022-11-18T10:24:52.187Z,17.70
2022-11-18T10:27:20.288Z,17.65
2022-11-18T10:29:57.114Z,6.85
2022-11-18T10:32:24.593Z,6.88
2022-11-18T10:34:57.882Z,5.78
2022-11-18T10:38:05.761Z,5.97
2022-11-18T10:40:26.964Z,5.35
2022-11-18T10:42:54.677Z,6.72
2022-11-18T10:45:29.635Z,11.60
2022-11-18T10:48:10.552Z,9.38
2022-11-18T10:50:40.890Z,14.15
2022-11-18T10:53:32.770Z,12.82
2022-11-18T10:56:09.417Z,8.65
2022-11-18T10:58:41.671Z,7.10
2022-11-18T11:01:19.572Z,8.85
2022-11-18T11:04:00.644Z,22.50
2022-11-18T11:06:35.291Z,13.30
2022-11-18T11:09:04.798Z,7.85
2022-11-18T11:11:32.187Z,8.85
2022-11-18T11:14:37.857Z,6.18
2022-11-18T11:17:11.658Z,6.03
2022-11-18T11:19:51.248Z,7.45
2022-11-18T11:22:18.973Z,13.93
2022-11-18T11:24:46.275Z,12.60
2022-11-18T11:30:46.474Z,7.38
2022-11-18T11:33:20.683Z,7.45
2022-11-18T11:35:57.006Z,7.32
2022-11-18T11:38:53.290Z,9.43
2022-11-18T11:41:53.227Z,15.30
2022-11-18T11:44:44.825Z,4.70
2022-11-18T11:47:45.988Z,3.83
2022-11-18T11:50:16.296Z,6.25
2022-11-18T11:53:05.775Z,4.57
2022-11-18T11:56:22.452Z,7.68
2022-11-18T11:59:11.116Z,2.72
2022-11-18T12:02:20.001Z,14.38
2022-11-18T12:07:29.775Z,4.95
2022-11-18T12:10:03.279Z,3.95
2022-11-18T12:13:11.309Z,9.27
2022-11-18T12:16:01.039Z,5.55
2022-11-18T12:18:31.321Z,4.40
2022-11-18T12:20:58.641Z,8.73
2022-11-18T12:23:31.128Z,6.20
2022-11-18T12:26:09.769Z,11.82
2022-11-18T12:28:42.553Z,8.90
2022-11-18T12:31:19.261Z,5.85
2022-11-18T12:34:27.682Z,8.82
2022-11-18T12:36:55.404Z,7.10
2022-11-18T12:39:25.586Z,3.65
2022-11-18T12:42:16.556Z,3.60
2022-11-18T12:44:46.269Z,7.72
2022-11-18T12:47:15.467Z,13.70
2022-11-18T12:49:45.681Z,8.48
2022-11-18T12:52:31.041Z,6.85
2022-11-18T12:55:04.404Z,6.10
2022-11-18T12:57:35.135Z,12.35
2022-11-18T13:00:22.441Z,7.35
2022-11-18T13:02:54.855Z,6.78
2022-11-18T13:05:30.883Z,9.35
2022-11-18T13:08:18.592Z,1.35
2022-11-18T13:11:14.038Z,4.28
2022-11-18T13:13:42.566Z,5.75
2022-11-18T13:16:42.333Z,4.22
2022-11-18T13:19:09.919Z,6.38
2022-11-18T13:21:55.871Z,6.22
2022-11-18T13:24:23.762Z,2.20
2022-11-18T13:26:58.007Z,4.10
2022-11-18T13:29:54.179Z,0.90
2022-11-18T13:32:24.916Z,5.93
2022-11-18T13:34:58.055Z,7.28
2022-11-18T13:37:28.831Z,2.30
2022-11-18T13:39:56.906Z,4.13
2022-11-18T13:42:32.009Z,1.85
2022-11-18T13:45:01.285Z,4.88
2022-11-18T13:47:40.525Z,9.23
2022-11-18T13:50:10.812Z,10.23
2022-11-18T13:52:45.956Z,6.30
2022-11-18T13:55:27.901Z,2.63
2022-11-18T13:58:19.993Z,8.35
2022-11-18T14:01:00.758Z,3.65
2022-11-18T14:03:47.413Z,6.15
2022-11-18T14:06:43.935Z,5.78
2022-11-18T14:09:24.371Z,4.55
2022-11-18T14:12:02.152Z,8.15
2022-11-18T14:14:36.291Z,10.13
2022-11-18T14:17:23.666Z,2.85
2022-11-18T14:19:58.959Z,4.25
2022-11-18T14:22:27.830Z,5.95
2022-11-18T14:24:59.305Z,2.22
2022-11-18T14:27:42.028Z,2.42
2022-11-18T14:30:32.331Z,4.43
2022-11-18T14:33:24.620Z,8.13
2022-11-18T14:35:58.421Z,6.60
2022-11-18T14:41:44.882Z,3.45
2022-11-18T14:44:15.827Z,6.97
2022-11-18T14:46:49.827Z,3.28
2022-11-18T14:49:19.242Z,10.20
2022-11-18T14:51:47.097Z,4.18
2022-11-18T14:54:19.419Z,3.78
2022-11-18T14:56:52.441Z,5.32
2022-11-18T14:59:21.048Z,5.70
2022-11-18T15:01:48.852Z,8.05
2022-11-18T15:04:17.786Z,5.47
2022-11-18T15:06:45.454Z,5.75
2022-11-18T15:09:13.294Z,4.40
2022-11-18T15:11:40.665Z,5.75
2022-11-18T15:14:07.964Z,5.65
2022-11-18T15:16:35.808Z,5.38
2022-11-18T15:19:05.259Z,6.28
2022-11-18T15:21:33.915Z,13.32
2022-11-18T15:24:01.217Z,5.28
2022-11-18T15:26:34.065Z,4.97
2022-11-18T15:29:01.348Z,6.03
2022-11-18T15:31:28.829Z,6.97
2022-11-18T15:33:58.898Z,3.53
2022-11-18T15:36:29.461Z,9.70
2022-11-18T15:38:56.849Z,2.83
2022-11-18T15:41:27.221Z,9.73
2022-11-18T15:43:56.285Z,2.95
2022-11-18T15:46:25.969Z,6.90
2022-11-18T15:48:58.407Z,5.18
2022-11-18T15:51:27.587Z,3.63
2022-11-18T15:53:55.452Z,3.72
2022-11-18T15:56:22.956Z,2.75
2022-11-18T15:58:56.754Z,12.30
2022-11-18T16:01:26.999Z,6.40
2022-11-18T16:03:54.715Z,6.38
2022-11-18T16:06:22.768Z,11.48
2022-11-18T16:08:55.879Z,8.65
2022-11-18T16:11:45.987Z,44.50
2022-11-18T16:14:15.200Z,27.75
2022-11-18T16:16:44.118Z,27.77
2022-11-18T16:19:13.688Z,24.27
2022-11-18T16:21:43.487Z,9.85
2022-11-18T16:24:20.533Z,12.30
2022-11-18T16:26:48.645Z,13.25
2022-11-18T16:29:17.469Z,9.57
2022-11-18T16:31:50.579Z,7.20
2022-11-18T16:34:22.373Z,3.17
2022-11-18T16:36:52.163Z,7.55
2022-11-18T16:39:25.071Z,5.38
2022-11-18T16:42:06.415Z,7.40
2022-11-18T16:44:35.408Z,10.30
2022-11-18T16:47:07.569Z,4.35
2022-11-18T16:49:38.221Z,6.57
2022-11-18T16:52:08.121Z,4.35
2022-11-18T16:54:38.268Z,4.75
2022-11-18T16:57:08.940Z,3.92
2022-11-18T16:59:36.239Z,6.40
2022-11-18T17:02:03.736Z,10.77
2022-11-18T17:04:31.243Z,8.82
2022-11-18T17:06:59.835Z,7.63
2022-11-18T17:09:27.581Z,5.43
2022-11-18T17:11:55.897Z,4.20
2022-11-18T17:14:24.062Z,5.50
2022-11-18T17:16:52.816Z,8.38
2022-11-18T17:19:22.589Z,13.85
2022-11-18T17:21:53.454Z,7.75
2022-11-18T17:24:23.119Z,7.47
2022-11-18T17:26:52.232Z,2.97
2022-11-18T17:29:20.384Z,6.50
2022-11-18T17:31:47.954Z,14.00
2022-11-18T17:34:16.024Z,11.55
2022-11-18T17:36:43.629Z,10.88
2022-11-18T17:39:12.126Z,8.63
2022-11-18T17:41:58.469Z,7.72
2022-11-18T17:44:28.047Z,12.25
2022-11-18T17:46:55.332Z,10.63
2022-11-18T17:49:22.818Z,10.38
2022-11-18T17:51:53.528Z,7.28
2022-11-18T17:54:22.077Z,6.15
2022-11-18T17:56:52.283Z,6.22
2022-11-18T17:59:20.720Z,6.13
2022-11-18T18:01:48.106Z,8.98
2022-11-18T18:04:20.228Z,6.68
2022-11-18T18:06:51.044Z,9.05
2022-11-18T18:09:21.808Z,8.88
2022-11-18T18:11:52.628Z,17.77
2022-11-18T18:14:20.335Z,9.43
2022-11-18T18:16:49.959Z,7.13
2022-11-18T18:19:22.053Z,10.65
2022-11-18T18:21:49.983Z,8.82
2022-11-18T18:24:20.068Z,6.80
2022-11-18T18:26:47.730Z,12.85
2022-11-18T18:29:15.116Z,10.40
2022-11-18T18:31:42.453Z,9.70
2022-11-18T18:34:09.902Z,10.18
2022-11-18T18:36:37.750Z,15.20
2022-11-18T18:39:05.049Z,13.40
2022-11-18T18:41:32.683Z,20.60
2022-11-18T18:44:00.874Z,14.82
2022-11-18T18:46:29.290Z,12.98
2022-11-18T18:48:59.939Z,11.57
2022-11-18T18:51:28.837Z,14.18
2022-11-18T18:53:57.577Z,14.27
2022-11-18T18:56:25.482Z,9.63
2022-11-18T18:58:52.888Z,13.80
2022-11-18T19:01:20.748Z,11.57
2022-11-18T19:03:48.775Z,11.98
2022-11-18T19:06:58.232Z,22.80
2022-11-18T19:09:26.692Z,12.23
2022-11-18T19:12:13.091Z,15.00
2022-11-18T19:14:40.633Z,15.85
2022-11-18T19:17:12.584Z,6.90
2022-11-18T19:20:00.154Z,12.45
2022-11-18T19:22:30.923Z,11.55
2022-11-18T19:24:59.727Z,14.10
2022-11-18T19:27:28.626Z,20.23
2022-11-18T19:29:55.920Z,10.50
2022-11-18T19:32:23.479Z,10.38
2022-11-18T19:34:50.831Z,14.05
2022-11-18T19:37:18.161Z,12.80
2022-11-18T19:39:45.901Z,12.40
2022-11-18T19:42:13.252Z,26.85
2022-11-18T19:44:40.537Z,14.45
2022-11-18T19:47:07.804Z,9.77
2022-11-18T19:49:35.183Z,15.65
2022-11-18T19:52:02.749Z,12.68
2022-11-18T19:54:30.182Z,29.48
2022-11-18T19:56:57.505Z,16.15
2022-11-18T19:59:24.753Z,19.55
2022-11-18T20:01:52.035Z,22.08
2022-11-18T20:04:19.316Z,15.82
2022-11-18T20:06:46.693Z,15.00
2022-11-18T20:09:14.258Z,22.13
2022-11-18T20:11:43.094Z,17.70
2022-11-18T20:14:11.596Z,11.40
2022-11-18T20:16:39.259Z,11.95
2022-11-18T20:19:10.746Z,13.13
2022-11-18T20:21:39.212Z,15.55
2022-11-18T20:24:07.898Z,14.25
2022-11-18T20:26:38.103Z,27.80
2022-11-18T20:29:07.087Z,26.75
2022-11-18T20:31:36.366Z,21.70
2022-11-18T20:34:04.677Z,15.48
2022-11-18T20:36:33.984Z,18.70
2022-11-18T20:39:07.075Z,18.00
2022-11-18T20:41:36.214Z,16.77
2022-11-18T20:44:03.915Z,13.38
2022-11-18T20:46:31.452Z,23.45
2022-11-18T20:48:58.750Z,14.45
2022-11-18T20:51:27.940Z,22.27
2022-11-18T20:53:57.218Z,26.67
2022-11-18T20:56:27.062Z,23.48
2022-11-18T20:58:57.346Z,18.70
2022-11-18T21:01:27.519Z,21.85
2022-11-18T21:04:03.620Z,34.38
2022-11-18T21:06:32.397Z,19.10
2022-11-18T21:09:02.550Z,18.33
2022-11-18T21:11:32.967Z,23.10
2022-11-18T21:14:24.102Z,12.63
2022-11-18T21:17:00.536Z,10.77
2022-11-18T21:19:29.340Z,21.83
2022-11-18T21:21:57.146Z,18.50
2022-11-18T21:24:28.739Z,18.13
2022-11-18T21:26:57.813Z,19.42
2022-11-18T21:29:27.427Z,12.80
2022-11-18T21:31:55.650Z,21.35
2022-11-18T21:34:23.203Z,15.82
2022-11-18T21:36:54.686Z,15.50
2022-11-18T21:39:24.365Z,20.45
2022-11-18T21:41:56.243Z,18.27
2022-11-18T21:44:25.176Z,21.15
2022-11-18T21:46:52.617Z,16.40
2022-11-18T21:49:20.408Z,14.88
2022-11-18T21:51:48.408Z,18.10
2022-11-18T21:54:18.139Z,14.13
2022-11-18T21:56:46.121Z,21.42
2022-11-18T21:59:13.481Z,12.82
2022-11-18T22:01:40.771Z,22.83
2022-11-18T22:04:08.114Z,24.10
2022-11-18T22:06:35.440Z,26.38
2022-11-18T22:09:04.291Z,23.27
2022-11-18T22:11:31.921Z,26.27
2022-11-18T22:13:59.308Z,16.15
2022-11-18T22:16:27.460Z,17.48
2022-11-18T22:19:00.298Z,20.83
2022-11-18T22:21:31.161Z,24.57
2022-11-18T22:24:00.317Z,16.50
2022-11-18T22:26:28.701Z,15.73
2022-11-18T22:28:57.891Z,21.85
2022-11-18T22:31:27.287Z,20.70
2022-11-18T22:33:56.041Z,18.67
2022-11-18T22:36:25.703Z,13.25
2022-11-18T22:38:53.925Z,18.25
2022-11-18T22:41:44.820Z,19.77
2022-11-18T22:44:14.710Z,20.90
2022-11-18T22:46:43.680Z,23.27
2022-11-18T22:49:11.896Z,29.25
2022-11-18T22:51:40.272Z,16.27
2022-11-18T22:54:38.288Z,18.10
2022-11-18T22:56:55.568Z,19.58
2022-11-18T22:59:23.218Z,25.27
2022-11-18T23:01:51.539Z,29.75
2022-11-18T23:04:18.946Z,18.02
2022-11-18T23:06:46.187Z,14.85
2022-11-18T23:09:13.560Z,17.67
2022-11-18T23:11:59.699Z,12.85
2022-11-18T23:14:27.185Z,23.52
2022-11-18T23:16:54.450Z,25.15
2022-11-18T23:19:22.245Z,14.93
2022-11-18T23:21:50.010Z,22.60
2022-11-18T23:24:19.205Z,18.75
2022-11-18T23:26:47.266Z,20.90
2022-11-18T23:29:15.716Z,16.58
2022-11-18T23:31:44.686Z,16.70
2022-11-18T23:34:13.896Z,16.67
2022-11-18T23:36:41.851Z,20.15
2022-11-18T23:39:09.548Z,24.52
2022-11-18T23:41:37.614Z,16.38
2022-11-18T23:44:06.019Z,11.40
2022-11-18T23:46:33.999Z,17.80
2022-11-18T23:49:01.347Z,13.07
2022-11-18T23:51:28.684Z,17.25
2022-11-18T23:53:57.395Z,13.02
2022-11-18T23:56:27.298Z,13.70
2022-11-18T23:58:56.627Z,12.45
